EXS46F LEMH-EGNX
Flight info
| Callsign | EXS46F |
|---|---|
| Flight time | N/A |
| Altitude | 36000 |
| Route | MEROS DCT LAPIT DCT CHELY DCT LUMAS DCT SOFFY DCT MRM DCT MTL DCT ETREK DCT MADOT DCT MOPEM DCT CACHI DCT AVLON DCT OKRIX DCT BRY DCT CLM DCT KOPOR DCT ABNUR DCT DIMAL DCT ALESO T420 HEMEL |
| Aircraft | B738/M-SDE2E3FGHIRWXY/LB1 |
Departure
| Time | 2026-04-11 09:58 |
|---|---|
| Airport | Menorca Airport (LEMH) |
Arrival
| Time | N/A |
|---|---|
| Airport | East Midlands Airport (EGNX) |
| Time | Latitude | Longitude | Altitude | Speed | Heading |
|---|---|---|---|---|---|
| 2026-04-11 09:36 | 39.86373 | 4.22387 | 302 ft | 0 kts | 98° |
| 2026-04-11 09:48 | 39.86374 | 4.22377 | 302 ft | 4 kts | 97° |
| 2026-04-11 09:48 | 39.86374 | 4.22331 | 302 ft | 4 kts | 77° |
| 2026-04-11 09:48 | 39.86365 | 4.22301 | 304 ft | 4 kts | 38° |
| 2026-04-11 09:49 | 39.86354 | 4.22293 | 302 ft | 0 kts | 9° |
| 2026-04-11 09:52 | 39.86372 | 4.22297 | 303 ft | 8 kts | 9° |
| 2026-04-11 09:52 | 39.86438 | 4.22312 | 303 ft | 9 kts | 8° |
| 2026-04-11 09:52 | 39.86501 | 4.22322 | 303 ft | 9 kts | 356° |
| 2026-04-11 09:53 | 39.86539 | 4.22265 | 305 ft | 9 kts | 281° |
| 2026-04-11 09:53 | 39.86558 | 4.22192 | 304 ft | 9 kts | 311° |
| 2026-04-11 09:53 | 39.86613 | 4.22177 | 304 ft | 9 kts | 7° |
| 2026-04-11 09:53 | 39.86673 | 4.22189 | 305 ft | 9 kts | 9° |
| 2026-04-11 09:54 | 39.86743 | 4.22204 | 305 ft | 12 kts | 9° |
| 2026-04-11 09:54 | 39.86830 | 4.22222 | 309 ft | 12 kts | 9° |
| 2026-04-11 09:54 | 39.86915 | 4.22240 | 307 ft | 12 kts | 9° |
| 2026-04-11 09:54 | 39.86998 | 4.22257 | 308 ft | 12 kts | 8° |
| 2026-04-11 09:55 | 39.87078 | 4.22272 | 309 ft | 12 kts | 8° |
| 2026-04-11 09:55 | 39.87157 | 4.22287 | 310 ft | 11 kts | 8° |
| 2026-04-11 09:55 | 39.87233 | 4.22303 | 309 ft | 11 kts | 9° |
| 2026-04-11 09:55 | 39.87307 | 4.22320 | 312 ft | 11 kts | 10° |
| 2026-04-11 09:56 | 39.87377 | 4.22309 | 312 ft | 10 kts | 319° |
| 2026-04-11 09:56 | 39.87395 | 4.22221 | 312 ft | 10 kts | 272° |
| 2026-04-11 09:56 | 39.87376 | 4.22126 | 313 ft | 11 kts | 240° |
| 2026-04-11 09:56 | 39.87311 | 4.22081 | 313 ft | 11 kts | 190° |
| 2026-04-11 09:57 | 39.87226 | 4.22063 | 312 ft | 18 kts | 188° |
| 2026-04-11 09:57 | 39.86918 | 4.22001 | 309 ft | 80 kts | 189° |
| 2026-04-11 09:57 | 39.86134 | 4.21841 | 300 ft | 145 kts | 188° |
| 2026-04-11 09:57 | 39.85044 | 4.21579 | 727 ft | 163 kts | 187° |
| 2026-04-11 09:58 | 39.83918 | 4.21308 | 1523 ft | 166 kts | 186° |
| 2026-04-11 09:58 | 39.82793 | 4.21055 | 2399 ft | 165 kts | 185° |
| 2026-04-11 09:58 | 39.81576 | 4.20824 | 2783 ft | 193 kts | 186° |
| 2026-04-11 09:58 | 39.80191 | 4.20570 | 3180 ft | 205 kts | 186° |
| 2026-04-11 09:59 | 39.78703 | 4.20277 | 3383 ft | 227 kts | 187° |
| 2026-04-11 09:59 | 39.77061 | 4.20104 | 3531 ft | 248 kts | 168° |
| 2026-04-11 09:59 | 39.75535 | 4.21209 | 3930 ft | 262 kts | 131° |
| 2026-04-11 09:59 | 39.74771 | 4.23365 | 4625 ft | 270 kts | 97° |
| 2026-04-11 10:00 | 39.74936 | 4.25820 | 5280 ft | 278 kts | 74° |
| 2026-04-11 10:00 | 39.75698 | 4.28137 | 5990 ft | 282 kts | 59° |
| 2026-04-11 10:00 | 39.76761 | 4.30307 | 6706 ft | 285 kts | 53° |
| 2026-04-11 10:00 | 39.78031 | 4.32286 | 7493 ft | 285 kts | 44° |
| 2026-04-11 10:01 | 39.79532 | 4.33966 | 8252 ft | 286 kts | 34° |
| 2026-04-11 10:01 | 39.81239 | 4.35298 | 9026 ft | 287 kts | 25° |
| 2026-04-11 10:01 | 39.83100 | 4.36237 | 9801 ft | 288 kts | 15° |
| 2026-04-11 10:01 | 39.85080 | 4.36759 | 10375 ft | 296 kts | 6° |
| 2026-04-11 10:02 | 39.87187 | 4.36821 | 10536 ft | 318 kts | 355° |
| 2026-04-11 10:02 | 39.89415 | 4.36343 | 10955 ft | 329 kts | 345° |
| 2026-04-11 10:02 | 39.91567 | 4.35323 | 11645 ft | 330 kts | 333° |
| 2026-04-11 10:02 | 39.93521 | 4.33759 | 12393 ft | 331 kts | 321° |
| 2026-04-11 10:03 | 39.95204 | 4.31707 | 13130 ft | 332 kts | 309° |
| 2026-04-11 10:03 | 39.96544 | 4.29264 | 13924 ft | 332 kts | 300° |
| 2026-04-11 10:03 | 39.97905 | 4.26818 | 14530 ft | 339 kts | 316° |
| 2026-04-11 10:03 | 39.99910 | 4.25138 | 15143 ft | 348 kts | 337° |
| 2026-04-11 10:04 | 40.02280 | 4.24413 | 15837 ft | 354 kts | 354° |
| 2026-04-11 10:04 | 40.04763 | 4.24607 | 16457 ft | 362 kts | 8° |
| 2026-04-11 10:04 | 40.07263 | 4.25230 | 17089 ft | 368 kts | 10° |
| 2026-04-11 10:04 | 40.09779 | 4.25925 | 17690 ft | 373 kts | 11° |
| 2026-04-11 10:05 | 40.12341 | 4.26644 | 18309 ft | 378 kts | 10° |
| 2026-04-11 10:05 | 40.14929 | 4.27361 | 18872 ft | 382 kts | 10° |
| 2026-04-11 10:05 | 40.17539 | 4.28073 | 19466 ft | 385 kts | 10° |
| 2026-04-11 10:05 | 40.20168 | 4.28780 | 20086 ft | 386 kts | 9° |
| 2026-04-11 10:06 | 40.22779 | 4.29475 | 20681 ft | 389 kts | 9° |
| 2026-04-11 10:06 | 40.25434 | 4.30179 | 21237 ft | 392 kts | 9° |
| 2026-04-11 10:06 | 40.28128 | 4.30892 | 21787 ft | 395 kts | 9° |
| 2026-04-11 10:06 | 40.30837 | 4.31608 | 22334 ft | 399 kts | 9° |
| 2026-04-11 10:07 | 40.33567 | 4.32331 | 22878 ft | 402 kts | 9° |
| 2026-04-11 10:07 | 40.36320 | 4.33061 | 23412 ft | 405 kts | 9° |
| 2026-04-11 10:07 | 40.39094 | 4.33797 | 23867 ft | 408 kts | 9° |
| 2026-04-11 10:07 | 40.41895 | 4.34541 | 24263 ft | 413 kts | 9° |
| 2026-04-11 10:08 | 40.44737 | 4.35297 | 24633 ft | 418 kts | 9° |
| 2026-04-11 10:08 | 40.47596 | 4.36057 | 25030 ft | 421 kts | 9° |
| 2026-04-11 10:08 | 40.50485 | 4.36825 | 25427 ft | 425 kts | 8° |
| 2026-04-11 10:08 | 40.53402 | 4.37549 | 25807 ft | 428 kts | 7° |
| 2026-04-11 10:09 | 40.56349 | 4.38243 | 26175 ft | 432 kts | 7° |
| 2026-04-11 10:09 | 40.59324 | 4.38933 | 26545 ft | 436 kts | 7° |
| 2026-04-11 10:09 | 40.62328 | 4.39631 | 26911 ft | 439 kts | 7° |
| 2026-04-11 10:09 | 40.65308 | 4.40330 | 27264 ft | 443 kts | 7° |
| 2026-04-11 10:10 | 40.68360 | 4.41051 | 27620 ft | 446 kts | 7° |
| 2026-04-11 10:10 | 40.71432 | 4.41781 | 27969 ft | 450 kts | 7° |
| 2026-04-11 10:10 | 40.74524 | 4.42518 | 28306 ft | 453 kts | 7° |
| 2026-04-11 10:10 | 40.77639 | 4.43261 | 28648 ft | 456 kts | 7° |
| 2026-04-11 10:11 | 40.80776 | 4.44011 | 28978 ft | 460 kts | 7° |
| 2026-04-11 10:11 | 40.83936 | 4.44767 | 29306 ft | 463 kts | 7° |
| 2026-04-11 10:11 | 40.87121 | 4.45529 | 29589 ft | 467 kts | 7° |
| 2026-04-11 10:11 | 40.90331 | 4.46297 | 29885 ft | 470 kts | 7° |
| 2026-04-11 10:12 | 40.93560 | 4.47081 | 30169 ft | 473 kts | 7° |
| 2026-04-11 10:12 | 40.96799 | 4.47874 | 30442 ft | 475 kts | 7° |
| 2026-04-11 10:12 | 41.00067 | 4.48676 | 30712 ft | 478 kts | 7° |
| 2026-04-11 10:12 | 41.03300 | 4.49469 | 30964 ft | 480 kts | 7° |
| 2026-04-11 10:13 | 41.06592 | 4.50276 | 31230 ft | 482 kts | 7° |
| 2026-04-11 10:13 | 41.09894 | 4.51084 | 31550 ft | 482 kts | 7° |
| 2026-04-11 10:13 | 41.13190 | 4.51889 | 31933 ft | 481 kts | 7° |
| 2026-04-11 10:13 | 41.16478 | 4.52692 | 32311 ft | 480 kts | 7° |
| 2026-04-11 10:14 | 41.19763 | 4.53494 | 32636 ft | 480 kts | 7° |
| 2026-04-11 10:14 | 41.23051 | 4.54298 | 32933 ft | 481 kts | 7° |
| 2026-04-11 10:14 | 41.26340 | 4.55102 | 33274 ft | 480 kts | 7° |
| 2026-04-11 10:14 | 41.29621 | 4.55907 | 33651 ft | 479 kts | 7° |
| 2026-04-11 10:15 | 41.32886 | 4.56709 | 33996 ft | 478 kts | 7° |
| 2026-04-11 10:15 | 41.36165 | 4.57515 | 34221 ft | 478 kts | 7° |
| 2026-04-11 10:15 | 41.39438 | 4.58320 | 34496 ft | 478 kts | 8° |
| 2026-04-11 10:15 | 41.42698 | 4.59123 | 34835 ft | 475 kts | 8° |